sensor_id;sensor_type;location;lat;lon;timestamp;temperature;humidity
25328;DHT22;13279;51.300;12.394;2023-04-25T00:01:16;7.20;99.90
25328;DHT22;13279;51.300;12.394;2023-04-25T00:03:44;7.20;99.90
25328;DHT22;13279;51.300;12.394;2023-04-25T00:06:12;7.30;99.90
25328;DHT22;13279;51.300;12.394;2023-04-25T00:08:40;7.30;99.90
25328;DHT22;13279;51.300;12.394;2023-04-25T00:11:09;7.30;99.90
25328;DHT22;13279;51.300;12.394;2023-04-25T00:13:36;7.40;99.90
25328;DHT22;13279;51.300;12.394;2023-04-25T00:16:07;7.40;99.90
25328;DHT22;13279;51.300;12.394;2023-04-25T00:18:35;7.40;99.90
25328;DHT22;13279;51.300;12.394;2023-04-25T00:21:02;7.40;99.90
25328;DHT22;13279;51.300;12.394;2023-04-25T00:23:32;7.40;99.90
25328;DHT22;13279;51.300;12.394;2023-04-25T00:26:02;7.50;99.90
25328;DHT22;13279;51.300;12.394;2023-04-25T00:28:31;7.40;99.90
25328;DHT22;13279;51.300;12.394;2023-04-25T00:30:59;7.50;99.90
25328;DHT22;13279;51.300;12.394;2023-04-25T00:33:26;7.40;99.90
25328;DHT22;13279;51.300;12.394;2023-04-25T00:35:54;7.40;99.90
25328;DHT22;13279;51.300;12.394;2023-04-25T00:38:21;7.40;99.90
25328;DHT22;13279;51.300;12.394;2023-04-25T00:40:49;7.30;99.90
25328;DHT22;13279;51.300;12.394;2023-04-25T00:43:16;7.30;99.90
25328;DHT22;13279;51.300;12.394;2023-04-25T00:45:47;7.30;99.90
25328;DHT22;13279;51.300;12.394;2023-04-25T00:48:15;7.30;99.90
25328;DHT22;13279;51.300;12.394;2023-04-25T00:50:49;7.30;99.90
25328;DHT22;13279;51.300;12.394;2023-04-25T00:53:18;7.20;99.90
25328;DHT22;13279;51.300;12.394;2023-04-25T00:55:46;7.20;99.90
25328;DHT22;13279;51.300;12.394;2023-04-25T00:58:14;7.20;99.90
25328;DHT22;13279;51.300;12.394;2023-04-25T01:00:42;7.20;99.90
25328;DHT22;13279;51.300;12.394;2023-04-25T01:03:11;7.20;99.90
25328;DHT22;13279;51.300;12.394;2023-04-25T01:05:39;7.20;99.90
25328;DHT22;13279;51.300;12.394;2023-04-25T01:08:08;7.10;99.90
25328;DHT22;13279;51.300;12.394;2023-04-25T01:10:36;7.10;99.90
25328;DHT22;13279;51.300;12.394;2023-04-25T01:13:04;7.10;99.90
25328;DHT22;13279;51.300;12.394;2023-04-25T01:15:32;7.00;99.90
25328;DHT22;13279;51.300;12.394;2023-04-25T01:17:59;7.00;99.90
25328;DHT22;13279;51.300;12.394;2023-04-25T01:20:29;7.00;99.90
25328;DHT22;13279;51.300;12.394;2023-04-25T01:25:29;6.90;99.90
25328;DHT22;13279;51.300;12.394;2023-04-25T01:27:58;6.90;99.90
25328;DHT22;13279;51.300;12.394;2023-04-25T01:30:27;6.90;99.90
25328;DHT22;13279;51.300;12.394;2023-04-25T01:32:55;6.90;99.90
25328;DHT22;13279;51.300;12.394;2023-04-25T01:35:23;6.90;99.90
25328;DHT22;13279;51.300;12.394;2023-04-25T01:37:53;6.90;99.90
25328;DHT22;13279;51.300;12.394;2023-04-25T01:40:22;6.90;99.90
25328;DHT22;13279;51.300;12.394;2023-04-25T01:42:51;6.90;99.90
25328;DHT22;13279;51.300;12.394;2023-04-25T01:45:19;6.90;97.20
25328;DHT22;13279;51.300;12.394;2023-04-25T01:47:48;6.90;90.90
25328;DHT22;13279;51.300;12.394;2023-04-25T01:50:17;6.90;92.30
25328;DHT22;13279;51.300;12.394;2023-04-25T01:52:46;6.90;91.70
25328;DHT22;13279;51.300;12.394;2023-04-25T01:55:13;6.90;90.00
25328;DHT22;13279;51.300;12.394;2023-04-25T01:58:01;6.80;79.50
25328;DHT22;13279;51.300;12.394;2023-04-25T02:00:48;6.80;87.70
25328;DHT22;13279;51.300;12.394;2023-04-25T02:03:16;6.80;91.00
25328;DHT22;13279;51.300;12.394;2023-04-25T02:05:44;6.80;89.10
25328;DHT22;13279;51.300;12.394;2023-04-25T02:08:13;6.80;74.40
25328;DHT22;13279;51.300;12.394;2023-04-25T02:10:40;6.80;74.70
25328;DHT22;13279;51.300;12.394;2023-04-25T02:13:19;6.70;77.40
25328;DHT22;13279;51.300;12.394;2023-04-25T02:16:10;6.70;89.00
25328;DHT22;13279;51.300;12.394;2023-04-25T02:18:38;6.70;95.50
25328;DHT22;13279;51.300;12.394;2023-04-25T02:21:06;6.60;99.90
25328;DHT22;13279;51.300;12.394;2023-04-25T02:23:34;6.60;99.90
25328;DHT22;13279;51.300;12.394;2023-04-25T02:26:01;6.60;99.90
25328;DHT22;13279;51.300;12.394;2023-04-25T02:28:31;6.50;99.90
25328;DHT22;13279;51.300;12.394;2023-04-25T02:30:58;6.50;99.90
25328;DHT22;13279;51.300;12.394;2023-04-25T02:33:26;6.60;99.90
25328;DHT22;13279;51.300;12.394;2023-04-25T02:35:53;6.50;99.90
25328;DHT22;13279;51.300;12.394;2023-04-25T02:38:21;6.50;99.90
25328;DHT22;13279;51.300;12.394;2023-04-25T02:40:48;6.50;99.90
25328;DHT22;13279;51.300;12.394;2023-04-25T02:43:17;6.50;99.90
25328;DHT22;13279;51.300;12.394;2023-04-25T02:45:46;6.50;99.90
25328;DHT22;13279;51.300;12.394;2023-04-25T02:48:14;6.50;99.90
25328;DHT22;13279;51.300;12.394;2023-04-25T02:50:41;6.50;99.90
25328;DHT22;13279;51.300;12.394;2023-04-25T02:53:09;6.40;99.90
25328;DHT22;13279;51.300;12.394;2023-04-25T02:55:43;6.40;99.90
25328;DHT22;13279;51.300;12.394;2023-04-25T02:58:11;6.40;99.90
25328;DHT22;13279;51.300;12.394;2023-04-25T03:00:45;6.40;99.90
25328;DHT22;13279;51.300;12.394;2023-04-25T03:03:13;6.40;99.90
25328;DHT22;13279;51.300;12.394;2023-04-25T03:05:44;6.40;99.90
25328;DHT22;13279;51.300;12.394;2023-04-25T03:08:14;6.40;99.90
25328;DHT22;13279;51.300;12.394;2023-04-25T03:10:42;6.40;99.90
25328;DHT22;13279;51.300;12.394;2023-04-25T03:13:10;6.40;99.90
25328;DHT22;13279;51.300;12.394;2023-04-25T03:15:40;6.40;99.90
25328;DHT22;13279;51.300;12.394;2023-04-25T03:18:09;6.40;99.90
25328;DHT22;13279;51.300;12.394;2023-04-25T03:20:39;6.40;99.90
25328;DHT22;13279;51.300;12.394;2023-04-25T03:23:08;6.40;99.90
25328;DHT22;13279;51.300;12.394;2023-04-25T03:25:37;6.40;99.90
25328;DHT22;13279;51.300;12.394;2023-04-25T03:28:05;6.30;99.90
25328;DHT22;13279;51.300;12.394;2023-04-25T03:30:32;6.30;98.10
25328;DHT22;13279;51.300;12.394;2023-04-25T03:33:00;6.30;99.90
25328;DHT22;13279;51.300;12.394;2023-04-25T03:35:29;6.20;95.20
25328;DHT22;13279;51.300;12.394;2023-04-25T03:37:57;6.20;90.00
25328;DHT22;13279;51.300;12.394;2023-04-25T03:40:29;6.20;92.50
25328;DHT22;13279;51.300;12.394;2023-04-25T03:43:15;6.10;96.00
25328;DHT22;13279;51.300;12.394;2023-04-25T03:45:49;6.10;98.80
25328;DHT22;13279;51.300;12.394;2023-04-25T03:48:19;6.10;97.80
25328;DHT22;13279;51.300;12.394;2023-04-25T03:50:52;6.10;99.90
25328;DHT22;13279;51.300;12.394;2023-04-25T03:53:20;6.10;99.80
25328;DHT22;13279;51.300;12.394;2023-04-25T03:56:08;6.00;99.90
25328;DHT22;13279;51.300;12.394;2023-04-25T03:58:38;6.00;99.90
25328;DHT22;13279;51.300;12.394;2023-04-25T04:01:06;6.00;99.90
25328;DHT22;13279;51.300;12.394;2023-04-25T04:03:36;5.90;99.90
25328;DHT22;13279;51.300;12.394;2023-04-25T04:06:07;5.90;99.90
25328;DHT22;13279;51.300;12.394;2023-04-25T04:08:39;5.90;99.90
25328;DHT22;13279;51.300;12.394;2023-04-25T04:11:08;5.90;99.90
25328;DHT22;13279;51.300;12.394;2023-04-25T04:13:37;6.00;99.90
25328;DHT22;13279;51.300;12.394;2023-04-25T04:16:05;6.00;99.90
25328;DHT22;13279;51.300;12.394;2023-04-25T04:18:33;6.00;99.90
25328;DHT22;13279;51.300;12.394;2023-04-25T04:21:01;6.00;99.90
25328;DHT22;13279;51.300;12.394;2023-04-25T04:23:35;6.00;97.70
25328;DHT22;13279;51.300;12.394;2023-04-25T04:26:03;6.00;99.90
25328;DHT22;13279;51.300;12.394;2023-04-25T04:28:44;6.00;98.20
25328;DHT22;13279;51.300;12.394;2023-04-25T04:31:22;6.00;98.10
25328;DHT22;13279;51.300;12.394;2023-04-25T04:33:50;6.00;99.90
25328;DHT22;13279;51.300;12.394;2023-04-25T04:36:21;5.90;99.90
25328;DHT22;13279;51.300;12.394;2023-04-25T04:38:59;5.90;99.90
25328;DHT22;13279;51.300;12.394;2023-04-25T04:41:36;5.90;99.90
25328;DHT22;13279;51.300;12.394;2023-04-25T04:44:23;6.00;99.90
25328;DHT22;13279;51.300;12.394;2023-04-25T04:47:13;6.00;99.90
25328;DHT22;13279;51.300;12.394;2023-04-25T04:50:03;6.00;99.90
25328;DHT22;13279;51.300;12.394;2023-04-25T04:52:53;6.00;96.40
25328;DHT22;13279;51.300;12.394;2023-04-25T04:55:42;6.00;94.50
25328;DHT22;13279;51.300;12.394;2023-04-25T04:58:45;6.00;99.90
25328;DHT22;13279;51.300;12.394;2023-04-25T05:01:22;6.00;99.90
25328;DHT22;13279;51.300;12.394;2023-04-25T05:04:16;6.10;99.90
25328;DHT22;13279;51.300;12.394;2023-04-25T05:07:19;6.10;99.90
25328;DHT22;13279;51.300;12.394;2023-04-25T05:09:59;6.10;99.90
25328;DHT22;13279;51.300;12.394;2023-04-25T05:12:59;6.20;99.90
25328;DHT22;13279;51.300;12.394;2023-04-25T05:15:52;6.20;95.30
25328;DHT22;13279;51.300;12.394;2023-04-25T05:18:39;6.20;99.20
25328;DHT22;13279;51.300;12.394;2023-04-25T05:21:32;6.20;98.10
25328;DHT22;13279;51.300;12.394;2023-04-25T05:24:11;6.30;99.90
25328;DHT22;13279;51.300;12.394;2023-04-25T05:26:58;6.40;92.40
25328;DHT22;13279;51.300;12.394;2023-04-25T05:29:52;6.40;84.90
25328;DHT22;13279;51.300;12.394;2023-04-25T05:32:32;6.50;72.50
25328;DHT22;13279;51.300;12.394;2023-04-25T05:35:01;6.60;54.20
25328;DHT22;13279;51.300;12.394;2023-04-25T05:37:48;6.60;39.10
25328;DHT22;13279;51.300;12.394;2023-04-25T05:40:28;6.60;17.70
25328;DHT22;13279;51.300;12.394;2023-04-25T05:43:10;6.70;8.90
25328;DHT22;13279;51.300;12.394;2023-04-25T05:45:48;6.80;1.00
25328;DHT22;13279;51.300;12.394;2023-04-25T05:48:35;6.90;1.00
25328;DHT22;13279;51.300;12.394;2023-04-25T05:51:21;7.00;1.00
25328;DHT22;13279;51.300;12.394;2023-04-25T05:54:18;7.00;1.00
25328;DHT22;13279;51.300;12.394;2023-04-25T05:56:49;7.10;1.00
25328;DHT22;13279;51.300;12.394;2023-04-25T05:59:18;7.20;1.00
25328;DHT22;13279;51.300;12.394;2023-04-25T06:01:55;7.30;1.00
25328;DHT22;13279;51.300;12.394;2023-04-25T06:04:28;7.30;1.00
25328;DHT22;13279;51.300;12.394;2023-04-25T06:06:56;7.50;1.00
25328;DHT22;13279;51.300;12.394;2023-04-25T06:09:24;7.60;1.00
25328;DHT22;13279;51.300;12.394;2023-04-25T06:11:53;7.60;1.00
25328;DHT22;13279;51.300;12.394;2023-04-25T06:14:21;7.70;1.00
25328;DHT22;13279;51.300;12.394;2023-04-25T06:16:54;7.90;1.00
25328;DHT22;13279;51.300;12.394;2023-04-25T06:19:24;8.20;1.00
25328;DHT22;13279;51.300;12.394;2023-04-25T06:21:56;8.40;1.00
25328;DHT22;13279;51.300;12.394;2023-04-25T06:24:24;8.40;1.00
25328;DHT22;13279;51.300;12.394;2023-04-25T06:26:51;8.50;1.00
25328;DHT22;13279;51.300;12.394;2023-04-25T06:29:20;8.40;1.00
25328;DHT22;13279;51.300;12.394;2023-04-25T06:31:52;8.50;1.00
25328;DHT22;13279;51.300;12.394;2023-04-25T06:34:21;9.00;1.00
25328;DHT22;13279;51.300;12.394;2023-04-25T06:36:50;8.90;1.00
25328;DHT22;13279;51.300;12.394;2023-04-25T06:39:18;9.00;1.00
25328;DHT22;13279;51.300;12.394;2023-04-25T06:41:46;8.90;1.00
25328;DHT22;13279;51.300;12.394;2023-04-25T06:44:34;8.70;1.00
25328;DHT22;13279;51.300;12.394;2023-04-25T06:47:12;8.70;1.00
25328;DHT22;13279;51.300;12.394;2023-04-25T06:49:50;8.80;1.00
25328;DHT22;13279;51.300;12.394;2023-04-25T06:52:21;8.70;1.00
25328;DHT22;13279;51.300;12.394;2023-04-25T06:54:52;8.70;1.00
25328;DHT22;13279;51.300;12.394;2023-04-25T06:58:06;8.60;1.00
25328;DHT22;13279;51.300;12.394;2023-04-25T07:01:10;8.50;1.00
25328;DHT22;13279;51.300;12.394;2023-04-25T07:03:42;8.50;1.00
25328;DHT22;13279;51.300;12.394;2023-04-25T07:06:16;8.40;1.00
25328;DHT22;13279;51.300;12.394;2023-04-25T07:08:54;8.40;1.00
25328;DHT22;13279;51.300;12.394;2023-04-25T07:11:25;8.40;1.00
25328;DHT22;13279;51.300;12.394;2023-04-25T07:13:55;8.40;1.00
25328;DHT22;13279;51.300;12.394;2023-04-25T07:16:24;8.40;1.00
25328;DHT22;13279;51.300;12.394;2023-04-25T07:18:57;8.40;1.00
25328;DHT22;13279;51.300;12.394;2023-04-25T07:21:25;8.50;1.00
25328;DHT22;13279;51.300;12.394;2023-04-25T07:23:53;8.50;1.00
25328;DHT22;13279;51.300;12.394;2023-04-25T07:26:30;8.50;1.00
25328;DHT22;13279;51.300;12.394;2023-04-25T07:29:17;8.50;1.00
25328;DHT22;13279;51.300;12.394;2023-04-25T07:31:48;8.50;1.00
25328;DHT22;13279;51.300;12.394;2023-04-25T07:34:18;8.50;1.00
25328;DHT22;13279;51.300;12.394;2023-04-25T07:36:50;8.60;1.00
25328;DHT22;13279;51.300;12.394;2023-04-25T07:39:22;8.60;1.00
25328;DHT22;13279;51.300;12.394;2023-04-25T07:41:55;8.60;1.00
25328;DHT22;13279;51.300;12.394;2023-04-25T07:44:28;8.60;1.00
25328;DHT22;13279;51.300;12.394;2023-04-25T07:46:56;8.60;1.00
25328;DHT22;13279;51.300;12.394;2023-04-25T07:49:26;8.60;1.00
25328;DHT22;13279;51.300;12.394;2023-04-25T07:51:54;8.60;1.00
25328;DHT22;13279;51.300;12.394;2023-04-25T07:54:24;8.60;1.00
25328;DHT22;13279;51.300;12.394;2023-04-25T07:57:05;8.60;1.00
25328;DHT22;13279;51.300;12.394;2023-04-25T07:59:42;8.50;1.00
25328;DHT22;13279;51.300;12.394;2023-04-25T08:02:26;8.40;1.00
25328;DHT22;13279;51.300;12.394;2023-04-25T08:05:00;8.40;1.00
25328;DHT22;13279;51.300;12.394;2023-04-25T08:07:55;8.40;1.00
25328;DHT22;13279;51.300;12.394;2023-04-25T08:10:52;8.30;1.00
25328;DHT22;13279;51.300;12.394;2023-04-25T08:13:30;8.30;1.00
25328;DHT22;13279;51.300;12.394;2023-04-25T08:16:12;8.30;1.00
25328;DHT22;13279;51.300;12.394;2023-04-25T08:18:57;8.30;1.00
25328;DHT22;13279;51.300;12.394;2023-04-25T08:21:36;8.30;1.00
25328;DHT22;13279;51.300;12.394;2023-04-25T08:24:13;8.20;1.00
25328;DHT22;13279;51.300;12.394;2023-04-25T08:26:46;8.40;1.00
25328;DHT22;13279;51.300;12.394;2023-04-25T08:29:48;8.40;1.00
25328;DHT22;13279;51.300;12.394;2023-04-25T08:32:18;8.40;1.00
25328;DHT22;13279;51.300;12.394;2023-04-25T08:35:05;8.50;1.00
25328;DHT22;13279;51.300;12.394;2023-04-25T08:37:42;8.60;1.00
25328;DHT22;13279;51.300;12.394;2023-04-25T08:40:15;8.60;1.00
25328;DHT22;13279;51.300;12.394;2023-04-25T08:43:06;8.70;1.00
25328;DHT22;13279;51.300;12.394;2023-04-25T08:45:42;8.80;1.00
25328;DHT22;13279;51.300;12.394;2023-04-25T08:48:32;9.00;1.00
25328;DHT22;13279;51.300;12.394;2023-04-25T08:51:07;9.10;1.00
25328;DHT22;13279;51.300;12.394;2023-04-25T08:53:55;9.20;99.90
25328;DHT22;13279;51.300;12.394;2023-04-25T08:56:44;9.30;99.90
25328;DHT22;13279;51.300;12.394;2023-04-25T08:59:15;9.30;99.90
25328;DHT22;13279;51.300;12.394;2023-04-25T09:01:45;9.30;99.90
25328;DHT22;13279;51.300;12.394;2023-04-25T09:04:16;9.30;99.90
25328;DHT22;13279;51.300;12.394;2023-04-25T09:06:45;9.30;99.90
25328;DHT22;13279;51.300;12.394;2023-04-25T09:09:14;9.20;99.90
25328;DHT22;13279;51.300;12.394;2023-04-25T09:11:44;9.20;99.90
25328;DHT22;13279;51.300;12.394;2023-04-25T09:14:14;9.10;99.90
25328;DHT22;13279;51.300;12.394;2023-04-25T09:16:58;9.10;99.90
25328;DHT22;13279;51.300;12.394;2023-04-25T09:19:38;9.20;99.90
25328;DHT22;13279;51.300;12.394;2023-04-25T09:22:17;9.40;99.90
25328;DHT22;13279;51.300;12.394;2023-04-25T09:24:50;9.70;99.90
25328;DHT22;13279;51.300;12.394;2023-04-25T09:27:21;9.90;99.90
25328;DHT22;13279;51.300;12.394;2023-04-25T09:30:01;10.10;99.90
25328;DHT22;13279;51.300;12.394;2023-04-25T09:32:45;10.10;99.90
25328;DHT22;13279;51.300;12.394;2023-04-25T09:35:25;10.10;99.90
25328;DHT22;13279;51.300;12.394;2023-04-25T09:37:55;10.00;97.40
25328;DHT22;13279;51.300;12.394;2023-04-25T09:40:48;10.00;99.90
25328;DHT22;13279;51.300;12.394;2023-04-25T09:43:25;9.90;33.20
25328;DHT22;13279;51.300;12.394;2023-04-25T09:45:58;9.70;9.30
25328;DHT22;13279;51.300;12.394;2023-04-25T09:48:32;9.60;99.90
25328;DHT22;13279;51.300;12.394;2023-04-25T09:51:14;9.50;99.90
25328;DHT22;13279;51.300;12.394;2023-04-25T09:53:46;9.50;99.90
25328;DHT22;13279;51.300;12.394;2023-04-25T09:56:32;9.50;99.90
25328;DHT22;13279;51.300;12.394;2023-04-25T09:59:06;9.50;1.00
25328;DHT22;13279;51.300;12.394;2023-04-25T10:01:36;9.50;1.00
25328;DHT22;13279;51.300;12.394;2023-04-25T10:04:25;9.40;1.00
25328;DHT22;13279;51.300;12.394;2023-04-25T10:07:19;9.50;99.90
25328;DHT22;13279;51.300;12.394;2023-04-25T10:09:57;9.60;99.90
25328;DHT22;13279;51.300;12.394;2023-04-25T10:12:37;9.70;99.90
25328;DHT22;13279;51.300;12.394;2023-04-25T10:15:10;9.70;99.90
25328;DHT22;13279;51.300;12.394;2023-04-25T10:17:52;9.60;99.90
25328;DHT22;13279;51.300;12.394;2023-04-25T10:20:20;9.50;99.90
25328;DHT22;13279;51.300;12.394;2023-04-25T10:22:54;9.50;99.90
25328;DHT22;13279;51.300;12.394;2023-04-25T10:25:24;9.60;99.90
25328;DHT22;13279;51.300;12.394;2023-04-25T10:27:56;9.70;99.90
25328;DHT22;13279;51.300;12.394;2023-04-25T10:30:32;9.60;99.90
25328;DHT22;13279;51.300;12.394;2023-04-25T10:33:03;9.60;99.90
25328;DHT22;13279;51.300;12.394;2023-04-25T10:35:45;9.60;99.90
25328;DHT22;13279;51.300;12.394;2023-04-25T10:38:17;9.70;99.90
25328;DHT22;13279;51.300;12.394;2023-04-25T10:41:02;9.70;99.90
25328;DHT22;13279;51.300;12.394;2023-04-25T10:43:54;9.70;99.90
25328;DHT22;13279;51.300;12.394;2023-04-25T10:46:34;9.70;99.90
25328;DHT22;13279;51.300;12.394;2023-04-25T10:49:04;9.60;99.90
25328;DHT22;13279;51.300;12.394;2023-04-25T10:51:35;9.60;99.90
25328;DHT22;13279;51.300;12.394;2023-04-25T10:54:07;9.50;99.90
25328;DHT22;13279;51.300;12.394;2023-04-25T10:56:41;9.40;99.90
25328;DHT22;13279;51.300;12.394;2023-04-25T10:59:16;9.30;1.00
25328;DHT22;13279;51.300;12.394;2023-04-25T11:01:46;9.30;1.00
25328;DHT22;13279;51.300;12.394;2023-04-25T11:04:23;9.30;1.00
25328;DHT22;13279;51.300;12.394;2023-04-25T11:07:02;9.40;1.00
25328;DHT22;13279;51.300;12.394;2023-04-25T11:09:38;9.30;1.00
25328;DHT22;13279;51.300;12.394;2023-04-25T11:12:12;9.30;1.00
25328;DHT22;13279;51.300;12.394;2023-04-25T11:14:45;9.40;1.00
25328;DHT22;13279;51.300;12.394;2023-04-25T11:17:18;9.40;1.00
25328;DHT22;13279;51.300;12.394;2023-04-25T11:20:01;9.40;1.00
25328;DHT22;13279;51.300;12.394;2023-04-25T11:22:33;9.50;1.00
25328;DHT22;13279;51.300;12.394;2023-04-25T11:25:07;9.50;1.00
25328;DHT22;13279;51.300;12.394;2023-04-25T11:27:49;9.40;1.00
25328;DHT22;13279;51.300;12.394;2023-04-25T11:30:24;9.30;1.00
25328;DHT22;13279;51.300;12.394;2023-04-25T11:32:55;9.30;1.00
25328;DHT22;13279;51.300;12.394;2023-04-25T11:35:24;9.10;1.00
25328;DHT22;13279;51.300;12.394;2023-04-25T11:37:58;9.20;1.00
25328;DHT22;13279;51.300;12.394;2023-04-25T11:40:28;9.20;1.00
25328;DHT22;13279;51.300;12.394;2023-04-25T11:43:00;9.20;1.00
25328;DHT22;13279;51.300;12.394;2023-04-25T11:45:32;9.10;99.90
25328;DHT22;13279;51.300;12.394;2023-04-25T11:48:02;9.20;99.90
25328;DHT22;13279;51.300;12.394;2023-04-25T11:50:35;9.20;99.90
25328;DHT22;13279;51.300;12.394;2023-04-25T11:53:06;9.20;99.90
25328;DHT22;13279;51.300;12.394;2023-04-25T11:55:40;9.30;99.90
25328;DHT22;13279;51.300;12.394;2023-04-25T11:58:13;9.30;99.90
25328;DHT22;13279;51.300;12.394;2023-04-25T12:00:47;9.40;99.90
25328;DHT22;13279;51.300;12.394;2023-04-25T12:03:16;9.50;99.90
25328;DHT22;13279;51.300;12.394;2023-04-25T12:05:47;9.40;99.90
25328;DHT22;13279;51.300;12.394;2023-04-25T12:08:16;9.50;99.90
25328;DHT22;13279;51.300;12.394;2023-04-25T12:10:45;9.50;99.90
25328;DHT22;13279;51.300;12.394;2023-04-25T12:13:20;9.50;99.90
25328;DHT22;13279;51.300;12.394;2023-04-25T12:15:49;9.60;99.90
25328;DHT22;13279;51.300;12.394;2023-04-25T12:18:19;9.60;99.90
25328;DHT22;13279;51.300;12.394;2023-04-25T12:20:51;9.60;99.90
25328;DHT22;13279;51.300;12.394;2023-04-25T12:23:28;9.60;99.90
25328;DHT22;13279;51.300;12.394;2023-04-25T12:25:57;9.80;99.90
25328;DHT22;13279;51.300;12.394;2023-04-25T12:28:37;9.90;99.90
25328;DHT22;13279;51.300;12.394;2023-04-25T12:31:23;10.20;99.90
25328;DHT22;13279;51.300;12.394;2023-04-25T12:34:09;10.10;99.90
25328;DHT22;13279;51.300;12.394;2023-04-25T12:37:03;10.00;99.90
25328;DHT22;13279;51.300;12.394;2023-04-25T12:39:47;10.10;99.90
25328;DHT22;13279;51.300;12.394;2023-04-25T12:42:25;10.10;99.90
25328;DHT22;13279;51.300;12.394;2023-04-25T12:45:26;10.00;99.90
25328;DHT22;13279;51.300;12.394;2023-04-25T12:48:12;9.80;99.90
25328;DHT22;13279;51.300;12.394;2023-04-25T12:50:57;9.70;99.90
25328;DHT22;13279;51.300;12.394;2023-04-25T12:53:37;9.60;99.90
25328;DHT22;13279;51.300;12.394;2023-04-25T12:56:35;9.60;99.90
25328;DHT22;13279;51.300;12.394;2023-04-25T12:59:10;9.50;99.90
25328;DHT22;13279;51.300;12.394;2023-04-25T13:01:37;9.50;99.90
25328;DHT22;13279;51.300;12.394;2023-04-25T13:04:09;9.60;99.90
25328;DHT22;13279;51.300;12.394;2023-04-25T13:06:37;9.50;99.90
25328;DHT22;13279;51.300;12.394;2023-04-25T13:09:05;9.40;99.90
25328;DHT22;13279;51.300;12.394;2023-04-25T13:11:36;9.40;99.90
25328;DHT22;13279;51.300;12.394;2023-04-25T13:14:18;9.40;99.90
25328;DHT22;13279;51.300;12.394;2023-04-25T13:16:45;9.40;99.90
25328;DHT22;13279;51.300;12.394;2023-04-25T13:19:14;9.30;99.90
25328;DHT22;13279;51.300;12.394;2023-04-25T13:21:42;9.30;99.90
25328;DHT22;13279;51.300;12.394;2023-04-25T13:24:20;9.30;99.90
25328;DHT22;13279;51.300;12.394;2023-04-25T13:26:53;9.30;99.90
25328;DHT22;13279;51.300;12.394;2023-04-25T13:29:23;9.30;99.90
25328;DHT22;13279;51.300;12.394;2023-04-25T13:31:51;9.40;99.90
25328;DHT22;13279;51.300;12.394;2023-04-25T13:34:20;9.50;99.90
25328;DHT22;13279;51.300;12.394;2023-04-25T13:36:51;9.60;99.90
25328;DHT22;13279;51.300;12.394;2023-04-25T13:39:21;9.80;99.90
25328;DHT22;13279;51.300;12.394;2023-04-25T13:41:49;10.00;99.90
25328;DHT22;13279;51.300;12.394;2023-04-25T13:44:17;10.20;99.90
25328;DHT22;13279;51.300;12.394;2023-04-25T13:46:44;10.70;99.90
25328;DHT22;13279;51.300;12.394;2023-04-25T13:49:12;11.00;99.90
25328;DHT22;13279;51.300;12.394;2023-04-25T13:51:42;11.20;99.90
25328;DHT22;13279;51.300;12.394;2023-04-25T13:54:22;11.30;99.90
25328;DHT22;13279;51.300;12.394;2023-04-25T13:56:49;11.40;99.90
25328;DHT22;13279;51.300;12.394;2023-04-25T13:59:18;11.40;99.90
25328;DHT22;13279;51.300;12.394;2023-04-25T14:01:49;11.20;99.90
25328;DHT22;13279;51.300;12.394;2023-04-25T14:04:19;11.30;99.90
25328;DHT22;13279;51.300;12.394;2023-04-25T14:06:57;11.40;99.90
25328;DHT22;13279;51.300;12.394;2023-04-25T14:09:32;11.60;99.90
25328;DHT22;13279;51.300;12.394;2023-04-25T14:12:01;11.60;99.90
25328;DHT22;13279;51.300;12.394;2023-04-25T14:14:34;11.50;99.90
25328;DHT22;13279;51.300;12.394;2023-04-25T14:17:20;11.30;99.90
25328;DHT22;13279;51.300;12.394;2023-04-25T14:19:49;11.10;99.90
25328;DHT22;13279;51.300;12.394;2023-04-25T14:22:19;10.90;99.90
25328;DHT22;13279;51.300;12.394;2023-04-25T14:24:46;10.70;99.90
25328;DHT22;13279;51.300;12.394;2023-04-25T14:27:14;10.60;99.90
25328;DHT22;13279;51.300;12.394;2023-04-25T14:29:42;10.50;99.90
25328;DHT22;13279;51.300;12.394;2023-04-25T14:32:09;10.40;99.90
25328;DHT22;13279;51.300;12.394;2023-04-25T14:34:40;10.50;99.90
25328;DHT22;13279;51.300;12.394;2023-04-25T14:37:07;10.30;99.90
25328;DHT22;13279;51.300;12.394;2023-04-25T14:39:36;10.20;99.90
25328;DHT22;13279;51.300;12.394;2023-04-25T14:42:04;10.30;99.90
25328;DHT22;13279;51.300;12.394;2023-04-25T14:44:32;10.30;99.90
25328;DHT22;13279;51.300;12.394;2023-04-25T14:47:00;10.30;99.90
25328;DHT22;13279;51.300;12.394;2023-04-25T14:49:27;10.30;99.90
25328;DHT22;13279;51.300;12.394;2023-04-25T14:51:59;10.40;99.90
25328;DHT22;13279;51.300;12.394;2023-04-25T14:54:27;10.50;99.90
25328;DHT22;13279;51.300;12.394;2023-04-25T14:56:56;10.50;99.90
25328;DHT22;13279;51.300;12.394;2023-04-25T14:59:24;10.60;99.90
25328;DHT22;13279;51.300;12.394;2023-04-25T15:01:54;10.60;99.90
25328;DHT22;13279;51.300;12.394;2023-04-25T15:04:25;10.60;99.90
25328;DHT22;13279;51.300;12.394;2023-04-25T15:06:53;10.70;99.90
25328;DHT22;13279;51.300;12.394;2023-04-25T15:09:22;10.60;99.90
25328;DHT22;13279;51.300;12.394;2023-04-25T15:11:50;10.60;99.90
25328;DHT22;13279;51.300;12.394;2023-04-25T15:14:19;10.50;99.90
25328;DHT22;13279;51.300;12.394;2023-04-25T15:16:47;10.40;99.90
25328;DHT22;13279;51.300;12.394;2023-04-25T15:19:15;10.30;99.90
25328;DHT22;13279;51.300;12.394;2023-04-25T15:21:47;10.30;99.90
25328;DHT22;13279;51.300;12.394;2023-04-25T15:24:21;10.30;99.90
25328;DHT22;13279;51.300;12.394;2023-04-25T15:26:54;10.30;99.90
25328;DHT22;13279;51.300;12.394;2023-04-25T15:29:26;10.20;99.90
25328;DHT22;13279;51.300;12.394;2023-04-25T15:32:00;10.30;99.90
25328;DHT22;13279;51.300;12.394;2023-04-25T15:34:30;10.20;99.90
25328;DHT22;13279;51.300;12.394;2023-04-25T15:37:00;10.30;99.90
25328;DHT22;13279;51.300;12.394;2023-04-25T15:39:27;10.30;99.90
25328;DHT22;13279;51.300;12.394;2023-04-25T15:41:56;10.30;99.90
25328;DHT22;13279;51.300;12.394;2023-04-25T15:44:25;10.40;99.90
25328;DHT22;13279;51.300;12.394;2023-04-25T15:46:53;10.40;99.90
25328;DHT22;13279;51.300;12.394;2023-04-25T15:49:23;10.40;99.90
25328;DHT22;13279;51.300;12.394;2023-04-25T15:51:51;10.40;99.90
25328;DHT22;13279;51.300;12.394;2023-04-25T15:54:20;10.40;99.90
25328;DHT22;13279;51.300;12.394;2023-04-25T15:56:47;10.30;99.90
25328;DHT22;13279;51.300;12.394;2023-04-25T15:59:26;10.40;99.90
25328;DHT22;13279;51.300;12.394;2023-04-25T16:01:56;10.40;99.90
25328;DHT22;13279;51.300;12.394;2023-04-25T16:04:26;10.30;99.90
25328;DHT22;13279;51.300;12.394;2023-04-25T16:07:00;10.30;99.90
25328;DHT22;13279;51.300;12.394;2023-04-25T16:09:28;10.20;99.90
25328;DHT22;13279;51.300;12.394;2023-04-25T16:11:57;10.10;99.90
25328;DHT22;13279;51.300;12.394;2023-04-25T16:14:24;10.10;99.90
25328;DHT22;13279;51.300;12.394;2023-04-25T16:16:52;10.10;99.90